createdAt,value
2023-03-05T00:03:59.641Z,17.25
2023-03-05T00:12:05.090Z,18.20
2023-03-05T00:20:14.587Z,18.02
2023-03-05T00:28:20.176Z,16.48
2023-03-05T00:36:29.456Z,22.15
2023-03-05T00:44:35.762Z,22.95
2023-03-05T00:52:43.844Z,23.20
2023-03-05T01:00:50.758Z,20.98
2023-03-05T01:08:59.694Z,22.67
2023-03-05T01:17:05.476Z,20.73
2023-03-05T01:25:15.203Z,20.83
2023-03-05T01:33:20.761Z,20.77
2023-03-05T01:41:28.907Z,36.92
2023-03-05T01:49:37.023Z,21.52
2023-03-05T01:57:48.559Z,22.70
2023-03-05T02:05:53.978Z,20.90
2023-03-05T02:14:02.455Z,17.48
2023-03-05T02:22:17.931Z,16.88
2023-03-05T02:30:24.257Z,13.75
2023-03-05T02:38:32.372Z,14.00
2023-03-05T02:46:38.562Z,13.82
2023-03-05T02:54:46.740Z,12.82
2023-03-05T03:02:52.393Z,11.55
2023-03-05T03:11:06.622Z,12.02
2023-03-05T03:19:12.069Z,11.63
2023-03-05T03:27:19.946Z,10.93
2023-03-05T03:35:25.514Z,11.48
2023-03-05T03:43:33.700Z,10.63
2023-03-05T03:51:39.114Z,12.27
2023-03-05T03:59:47.249Z,11.95
2023-03-05T04:07:52.617Z,13.13
2023-03-05T04:16:00.780Z,13.10
2023-03-05T04:24:06.374Z,12.50
2023-03-05T04:32:14.765Z,13.52
2023-03-05T04:40:20.893Z,12.40
2023-03-05T04:48:28.948Z,14.52
2023-03-05T04:56:34.467Z,13.18
2023-03-05T05:04:45.255Z,13.73
2023-03-05T05:12:50.830Z,12.27
2023-03-05T05:20:58.962Z,11.90
2023-03-05T05:29:04.497Z,15.50
2023-03-05T05:37:12.536Z,17.83
2023-03-05T05:45:18.070Z,18.08
2023-03-05T05:53:27.018Z,17.40
2023-03-05T06:01:34.986Z,21.70
2023-03-05T06:09:43.106Z,20.17
2023-03-05T06:17:48.694Z,20.50
2023-03-05T06:25:58.856Z,21.30
2023-03-05T06:34:04.704Z,22.73
2023-03-05T06:42:13.048Z,22.35
2023-03-05T06:50:18.646Z,20.75
2023-03-05T06:58:27.065Z,22.25
2023-03-05T07:06:34.918Z,21.23
2023-03-05T07:14:43.064Z,23.60
2023-03-05T07:22:48.681Z,24.77
2023-03-05T07:31:02.458Z,26.27
2023-03-05T07:47:15.744Z,24.63
2023-03-05T07:55:21.334Z,25.45
2023-03-05T08:03:29.487Z,28.23
2023-03-05T08:11:35.173Z,26.92
2023-03-05T08:19:45.026Z,26.58
2023-03-05T08:27:51.257Z,27.00
2023-03-05T08:35:59.208Z,25.35
2023-03-05T08:44:05.123Z,26.23
2023-03-05T08:52:13.286Z,25.65
2023-03-05T09:00:19.529Z,23.83
2023-03-05T09:08:27.576Z,23.67
2023-03-05T09:16:33.198Z,22.88
2023-03-05T09:24:41.356Z,23.88
2023-03-05T09:32:47.058Z,25.48
2023-03-05T09:41:02.534Z,22.10
2023-03-05T09:49:18.196Z,24.02
2023-03-05T09:57:32.084Z,23.05
2023-03-05T10:05:56.613Z,20.30
2023-03-05T10:14:06.945Z,21.77
2023-03-05T10:22:22.060Z,20.33
2023-03-05T10:30:54.834Z,19.65
2023-03-05T10:39:28.206Z,20.05
2023-03-05T10:47:47.725Z,19.48
2023-03-05T10:55:56.752Z,18.98
2023-03-05T11:04:36.505Z,18.83
2023-03-05T11:12:42.358Z,17.27
2023-03-05T11:20:50.875Z,19.23
2023-03-05T11:29:00.802Z,18.98
2023-03-05T11:37:10.582Z,17.50
2023-03-05T11:45:22.323Z,17.33
2023-03-05T11:53:36.121Z,18.33
2023-03-05T12:01:46.777Z,17.65
2023-03-05T12:09:56.154Z,19.00
2023-03-05T12:18:13.935Z,17.77
2023-03-05T12:26:43.299Z,18.58
2023-03-05T12:34:53.430Z,17.90
2023-03-05T12:43:03.535Z,17.80
2023-03-05T12:51:31.126Z,18.80
2023-03-05T12:59:48.319Z,19.08
2023-03-05T13:07:54.030Z,20.73
2023-03-05T13:16:03.524Z,18.88
2023-03-05T13:24:23.327Z,18.20
2023-03-05T13:32:37.417Z,18.25
2023-03-05T13:40:44.956Z,18.35
2023-03-05T13:48:58.104Z,19.08
2023-03-05T13:57:08.834Z,19.20
2023-03-05T14:05:25.767Z,18.25
2023-03-05T14:13:33.779Z,20.52
2023-03-05T14:21:53.511Z,20.70
2023-03-05T14:30:00.480Z,25.40
2023-03-05T14:38:08.930Z,22.00
2023-03-05T14:46:18.080Z,40.38
2023-03-05T14:54:29.517Z,23.02
2023-03-05T15:02:35.007Z,22.40
2023-03-05T15:10:43.136Z,21.42
2023-03-05T15:18:48.971Z,20.08
2023-03-05T15:26:57.107Z,21.27
2023-03-05T15:35:04.857Z,19.23
2023-03-05T15:43:14.989Z,18.08
2023-03-05T15:51:23.103Z,19.52
2023-03-05T15:59:31.777Z,18.83
2023-03-05T16:07:39.852Z,18.33
2023-03-05T16:15:53.379Z,17.48
2023-03-05T16:23:59.604Z,15.43
2023-03-05T16:32:08.836Z,14.40
2023-03-05T16:40:16.057Z,13.85
2023-03-05T16:48:24.154Z,12.73
2023-03-05T16:56:30.080Z,13.07
2023-03-05T17:04:38.195Z,12.50
2023-03-05T17:12:44.350Z,11.90
2023-03-05T17:20:59.020Z,12.25
2023-03-05T17:29:04.702Z,10.43
2023-03-05T17:37:12.748Z,11.00
2023-03-05T17:45:18.725Z,11.30
2023-03-05T17:53:30.181Z,11.23
2023-03-05T18:01:37.291Z,11.50
2023-03-05T18:09:47.287Z,11.10
2023-03-05T18:17:53.232Z,11.48
2023-03-05T18:26:01.367Z,10.95
2023-03-05T18:34:06.795Z,11.40
2023-03-05T18:42:17.750Z,10.43
2023-03-05T18:50:24.582Z,9.75
2023-03-05T18:58:32.800Z,10.60
2023-03-05T19:06:38.934Z,9.75
2023-03-05T19:14:46.988Z,9.75
2023-03-05T19:22:53.037Z,9.80
2023-03-05T19:31:01.079Z,9.93
2023-03-05T19:39:07.475Z,11.02
2023-03-05T19:47:18.460Z,10.25
2023-03-05T19:55:24.092Z,10.25
2023-03-05T20:03:32.297Z,9.68
2023-03-05T20:11:38.082Z,9.30
2023-03-05T20:19:46.405Z,9.73
2023-03-05T20:27:51.842Z,10.13
2023-03-05T20:36:01.420Z,9.38
2023-03-05T20:44:07.731Z,10.30
2023-03-05T20:52:15.739Z,10.77
2023-03-05T21:00:21.836Z,11.50
2023-03-05T21:08:29.859Z,10.38
2023-03-05T21:16:35.495Z,10.88
2023-03-05T21:25:21.159Z,9.48
2023-03-05T21:33:28.557Z,9.60
2023-03-05T21:41:36.618Z,7.57
2023-03-05T21:49:41.984Z,6.90
2023-03-05T21:57:50.225Z,6.65
2023-03-05T22:05:55.922Z,7.00
2023-03-05T22:14:04.067Z,7.07
2023-03-05T22:22:09.659Z,7.28
2023-03-05T22:30:18.169Z,7.03
2023-03-05T22:38:24.418Z,7.05
2023-03-05T22:46:32.454Z,7.20
2023-03-05T22:54:37.818Z,7.03
2023-03-05T23:02:48.885Z,6.63
2023-03-05T23:10:54.323Z,5.35
2023-03-05T23:19:02.496Z,5.03
2023-03-05T23:27:09.406Z,5.40
2023-03-05T23:35:19.594Z,4.95
2023-03-05T23:43:27.546Z,5.35
2023-03-05T23:51:35.561Z,4.80
2023-03-05T23:59:40.898Z,4.82
